sensor_id;sensor_type;location;lat;lon;timestamp;pressure;altitude;pressure_sealevel;temperature;humidity
41688;BME280;27371;42.686;23.362;2024-03-29T00:00:41;165106.31;;;11.15;55.13
41688;BME280;27371;42.686;23.362;2024-03-29T00:03:06;165135.72;;;11.27;54.50
41688;BME280;27371;42.686;23.362;2024-03-29T00:05:36;165131.72;;;11.25;54.19
41688;BME280;27371;42.686;23.362;2024-03-29T00:08:02;165123.72;;;11.22;54.06
41688;BME280;27371;42.686;23.362;2024-03-29T00:10:28;165159.81;;;11.36;53.57
41688;BME280;27371;42.686;23.362;2024-03-29T00:12:53;165165.13;;;11.38;53.16
41688;BME280;27371;42.686;23.362;2024-03-29T00:15:19;165202.59;;;11.52;52.91
41688;BME280;27371;42.686;23.362;2024-03-29T00:17:44;165182.53;;;11.45;52.86
41688;BME280;27371;42.686;23.362;2024-03-29T00:20:10;165166.50;;;11.39;53.23
41688;BME280;27371;42.686;23.362;2024-03-29T00:22:37;165198.56;;;11.51;53.08
41688;BME280;27371;42.686;23.362;2024-03-29T00:25:03;165197.25;;;11.50;53.13
41688;BME280;27371;42.686;23.362;2024-03-29T00:27:29;165209.25;;;11.55;52.90
41688;BME280;27371;42.686;23.362;2024-03-29T00:29:55;165201.22;;;11.52;52.80
41688;BME280;27371;42.686;23.362;2024-03-29T00:32:21;165225.31;;;11.61;52.70
41688;BME280;27371;42.686;23.362;2024-03-29T00:34:49;165215.94;;;11.57;52.64
41688;BME280;27371;42.686;23.362;2024-03-29T00:37:15;165226.66;;;11.62;52.51
41688;BME280;27371;42.686;23.362;2024-03-29T00:39:40;165207.91;;;11.54;52.73
41688;BME280;27371;42.686;23.362;2024-03-29T00:42:07;165213.28;;;11.56;52.86
41688;BME280;27371;42.686;23.362;2024-03-29T00:44:34;165213.28;;;11.56;52.77
41688;BME280;27371;42.686;23.362;2024-03-29T00:47:01;165206.59;;;11.54;52.95
41688;BME280;27371;42.686;23.362;2024-03-29T00:49:26;165169.16;;;11.40;53.13
41688;BME280;27371;42.686;23.362;2024-03-29T00:51:52;165167.81;;;11.39;53.28
41688;BME280;27371;42.686;23.362;2024-03-29T00:54:18;165158.44;;;11.35;53.63
41688;BME280;27371;42.686;23.362;2024-03-29T00:56:44;165165.13;;;11.38;53.76
41688;BME280;27371;42.686;23.362;2024-03-29T00:59:09;165159.81;;;11.36;53.94
41688;BME280;27371;42.686;23.362;2024-03-29T01:01:35;165147.75;;;11.31;53.92
41688;BME280;27371;42.686;23.362;2024-03-29T01:04:00;165138.41;;;11.28;53.85
41688;BME280;27371;42.686;23.362;2024-03-29T01:06:26;165068.88;;;11.01;54.83
41688;BME280;27371;42.686;23.362;2024-03-29T01:08:51;165004.72;;;10.77;55.62
41688;BME280;27371;42.686;23.362;2024-03-29T01:11:17;164943.28;;;10.53;56.60
41688;BME280;27371;42.686;23.362;2024-03-29T01:13:43;164925.88;;;10.46;56.60
41688;BME280;27371;42.686;23.362;2024-03-29T01:16:08;164949.91;;;10.56;56.58
41688;BME280;27371;42.686;23.362;2024-03-29T01:18:34;164963.28;;;10.61;56.42
41688;BME280;27371;42.686;23.362;2024-03-29T01:20:59;165000.75;;;10.75;56.01
41688;BME280;27371;42.686;23.362;2024-03-29T01:23:25;165031.47;;;10.87;55.85
41688;BME280;27371;42.686;23.362;2024-03-29T01:25:50;165038.16;;;10.89;55.43
41688;BME280;27371;42.686;23.362;2024-03-29T01:28:16;165038.16;;;10.89;55.25
41688;BME280;27371;42.686;23.362;2024-03-29T01:30:41;165040.81;;;10.90;55.40
41688;BME280;27371;42.686;23.362;2024-03-29T01:33:07;165036.81;;;10.89;55.44
41688;BME280;27371;42.686;23.362;2024-03-29T01:35:32;165031.47;;;10.87;55.28
41688;BME280;27371;42.686;23.362;2024-03-29T01:37:58;165040.81;;;10.90;55.03
41688;BME280;27371;42.686;23.362;2024-03-29T01:40:24;165052.84;;;10.95;55.40
41688;BME280;27371;42.686;23.362;2024-03-29T01:42:53;165070.22;;;11.02;55.21
41688;BME280;27371;42.686;23.362;2024-03-29T01:45:18;165050.16;;;10.94;55.48
41688;BME280;27371;42.686;23.362;2024-03-29T01:47:45;165067.56;;;11.01;55.44
41688;BME280;27371;42.686;23.362;2024-03-29T01:50:11;165034.13;;;10.88;55.58
41688;BME280;27371;42.686;23.362;2024-03-29T01:52:37;165032.81;;;10.87;56.05
41688;BME280;27371;42.686;23.362;2024-03-29T01:55:03;165036.81;;;10.89;55.85
41688;BME280;27371;42.686;23.362;2024-03-29T01:57:29;165030.16;;;10.86;55.76
41688;BME280;27371;42.686;23.362;2024-03-29T01:59:55;165044.84;;;10.92;55.67
41688;BME280;27371;42.686;23.362;2024-03-29T02:02:22;165044.84;;;10.92;55.88
41688;BME280;27371;42.686;23.362;2024-03-29T02:04:48;165054.19;;;10.96;55.94
41688;BME280;27371;42.686;23.362;2024-03-29T02:07:14;165048.81;;;10.93;55.77
41688;BME280;27371;42.686;23.362;2024-03-29T02:09:40;165047.50;;;10.93;55.98
41688;BME280;27371;42.686;23.362;2024-03-29T02:12:07;165026.09;;;10.85;56.06
41688;BME280;27371;42.686;23.362;2024-03-29T02:14:33;165014.06;;;10.80;56.11
41688;BME280;27371;42.686;23.362;2024-03-29T02:16:58;164928.59;;;10.47;57.27
41688;BME280;27371;42.686;23.362;2024-03-29T02:19:24;164849.69;;;10.17;58.47
41688;BME280;27371;42.686;23.362;2024-03-29T02:21:51;164813.63;;;10.03;59.12
41688;BME280;27371;42.686;23.362;2024-03-29T02:24:20;164855.00;;;10.19;59.10
41688;BME280;27371;42.686;23.362;2024-03-29T02:26:46;164860.34;;;10.21;59.25
41688;BME280;27371;42.686;23.362;2024-03-29T02:29:12;164897.81;;;10.36;59.06
41688;BME280;27371;42.686;23.362;2024-03-29T02:31:38;164889.81;;;10.33;58.79
41688;BME280;27371;42.686;23.362;2024-03-29T02:34:03;164904.50;;;10.38;59.00
41688;BME280;27371;42.686;23.362;2024-03-29T02:36:29;164853.69;;;10.19;58.58
41688;BME280;27371;42.686;23.362;2024-03-29T02:38:55;164913.84;;;10.42;58.40
41688;BME280;27371;42.686;23.362;2024-03-29T02:41:21;164915.22;;;10.42;58.24
41688;BME280;27371;42.686;23.362;2024-03-29T02:43:47;164905.81;;;10.39;58.60
41688;BME280;27371;42.686;23.362;2024-03-29T02:46:15;164920.53;;;10.44;58.66
41688;BME280;27371;42.686;23.362;2024-03-29T02:48:41;164932.56;;;10.49;58.42
41688;BME280;27371;42.686;23.362;2024-03-29T02:51:06;164897.81;;;10.36;58.76
41688;BME280;27371;42.686;23.362;2024-03-29T02:53:32;164928.59;;;10.47;58.91
41688;BME280;27371;42.686;23.362;2024-03-29T02:55:58;164917.88;;;10.43;58.88
41688;BME280;27371;42.686;23.362;2024-03-29T02:58:23;164925.88;;;10.46;59.04
41688;BME280;27371;42.686;23.362;2024-03-29T03:00:49;164936.59;;;10.51;59.00
41688;BME280;27371;42.686;23.362;2024-03-29T03:03:15;164912.50;;;10.41;58.82
41688;BME280;27371;42.686;23.362;2024-03-29T03:05:42;164923.22;;;10.45;59.01
41688;BME280;27371;42.686;23.362;2024-03-29T03:08:07;164924.56;;;10.46;59.09
41688;BME280;27371;42.686;23.362;2024-03-29T03:10:51;164927.22;;;10.47;59.28
41688;BME280;27371;42.686;23.362;2024-03-29T03:13:29;164793.56;;;9.96;59.03
41688;BME280;27371;42.686;23.362;2024-03-29T03:15:55;164911.19;;;10.41;59.05
41688;BME280;27371;42.686;23.362;2024-03-29T03:18:21;164915.22;;;10.42;59.29
41688;BME280;27371;42.686;23.362;2024-03-29T03:20:53;164901.84;;;10.37;59.27
41688;BME280;27371;42.686;23.362;2024-03-29T03:23:20;164847.00;;;10.16;59.34
41688;BME280;27371;42.686;23.362;2024-03-29T03:26:06;164901.84;;;10.37;59.63
41688;BME280;27371;42.686;23.362;2024-03-29T03:28:32;164880.47;;;10.29;59.74
41688;BME280;27371;42.686;23.362;2024-03-29T03:30:57;164880.47;;;10.29;59.79
41688;BME280;27371;42.686;23.362;2024-03-29T03:33:23;164794.91;;;9.96;60.30
41688;BME280;27371;42.686;23.362;2024-03-29T03:35:48;164670.72;;;9.49;62.19
41688;BME280;27371;42.686;23.362;2024-03-29T03:38:15;164637.31;;;9.36;63.66
41688;BME280;27371;42.686;23.362;2024-03-29T03:40:41;164625.28;;;9.31;63.95
41688;BME280;27371;42.686;23.362;2024-03-29T03:43:07;164633.28;;;9.34;64.03
41688;BME280;27371;42.686;23.362;2024-03-29T03:45:36;164621.28;;;9.30;63.63
41688;BME280;27371;42.686;23.362;2024-03-29T03:48:08;164681.38;;;9.53;63.25
41688;BME280;27371;42.686;23.362;2024-03-29T03:50:35;164625.28;;;9.31;62.66
41688;BME280;27371;42.686;23.362;2024-03-29T03:53:01;164753.47;;;9.80;62.91
41688;BME280;27371;42.686;23.362;2024-03-29T03:55:27;164733.44;;;9.73;62.40
41688;BME280;27371;42.686;23.362;2024-03-29T03:57:53;164777.56;;;9.90;62.23
41688;BME280;27371;42.686;23.362;2024-03-29T04:00:19;164777.56;;;9.90;62.08
41688;BME280;27371;42.686;23.362;2024-03-29T04:02:52;164712.06;;;9.65;62.05
41688;BME280;27371;42.686;23.362;2024-03-29T04:05:18;164712.06;;;9.65;62.07
41688;BME280;27371;42.686;23.362;2024-03-29T04:07:44;164778.88;;;9.90;61.74
41688;BME280;27371;42.686;23.362;2024-03-29T04:10:10;164800.25;;;9.98;61.92
41688;BME280;27371;42.686;23.362;2024-03-29T04:12:35;164781.53;;;9.91;61.73
41688;BME280;27371;42.686;23.362;2024-03-29T04:15:01;164810.94;;;10.02;61.75
41688;BME280;27371;42.686;23.362;2024-03-29T04:17:28;164812.25;;;10.03;61.64
41688;BME280;27371;42.686;23.362;2024-03-29T04:19:56;164826.94;;;10.09;61.67
41688;BME280;27371;42.686;23.362;2024-03-29T04:22:22;164801.59;;;9.99;61.57
41688;BME280;27371;42.686;23.362;2024-03-29T04:24:48;164825.63;;;10.08;61.22
41688;BME280;27371;42.686;23.362;2024-03-29T04:27:14;164826.94;;;10.09;61.70
41688;BME280;27371;42.686;23.362;2024-03-29T04:29:39;164841.63;;;10.14;61.71
41688;BME280;27371;42.686;23.362;2024-03-29T04:32:05;164835.00;;;10.12;61.63
41688;BME280;27371;42.686;23.362;2024-03-29T04:34:31;164816.28;;;10.04;61.97
41688;BME280;27371;42.686;23.362;2024-03-29T04:36:56;164840.31;;;10.14;62.03
41688;BME280;27371;42.686;23.362;2024-03-29T04:39:22;164832.28;;;10.11;62.20
41688;BME280;27371;42.686;23.362;2024-03-29T04:41:48;164801.59;;;9.99;62.54
41688;BME280;27371;42.686;23.362;2024-03-29T04:44:13;164825.63;;;10.08;62.68
41688;BME280;27371;42.686;23.362;2024-03-29T04:46:49;164869.69;;;10.25;63.06
41688;BME280;27371;42.686;23.362;2024-03-29T04:49:15;164843.00;;;10.15;62.73
41688;BME280;27371;42.686;23.362;2024-03-29T04:51:43;164912.50;;;10.41;62.17
41688;BME280;27371;42.686;23.362;2024-03-29T04:54:08;164967.31;;;10.62;61.72
41688;BME280;27371;42.686;23.362;2024-03-29T04:56:34;165167.81;;;11.39;59.40
41688;BME280;27371;42.686;23.362;2024-03-29T04:59:02;165320.31;;;11.97;58.39
41688;BME280;27371;42.686;23.362;2024-03-29T05:01:28;165487.50;;;12.61;56.68
41688;BME280;27371;42.686;23.362;2024-03-29T05:03:53;165721.78;;;13.51;53.12
41688;BME280;27371;42.686;23.362;2024-03-29T05:06:19;165856.97;;;14.02;51.29
41688;BME280;27371;42.686;23.362;2024-03-29T05:08:45;165958.75;;;14.41;49.97
41688;BME280;27371;42.686;23.362;2024-03-29T05:11:10;166052.56;;;14.77;48.89
41688;BME280;27371;42.686;23.362;2024-03-29T05:13:39;166185.22;;;15.28;47.71
41688;BME280;27371;42.686;23.362;2024-03-29T05:16:05;166355.47;;;15.93;46.57
41688;BME280;27371;42.686;23.362;2024-03-29T05:18:31;166490.88;;;16.44;44.63
41688;BME280;27371;42.686;23.362;2024-03-29T05:20:57;166604.91;;;16.88;43.72
41688;BME280;27371;42.686;23.362;2024-03-29T05:23:22;166748.44;;;17.43;41.60
41688;BME280;27371;42.686;23.362;2024-03-29T05:25:48;166815.50;;;17.68;40.69
41688;BME280;27371;42.686;23.362;2024-03-29T05:28:15;166779.28;;;17.54;40.35
41688;BME280;27371;42.686;23.362;2024-03-29T05:30:40;166771.25;;;17.51;40.43
41688;BME280;27371;42.686;23.362;2024-03-29T05:33:06;166751.13;;;17.44;40.23
41688;BME280;27371;42.686;23.362;2024-03-29T05:35:33;166676.00;;;17.15;40.05
41688;BME280;27371;42.686;23.362;2024-03-29T05:37:58;166616.94;;;16.92;41.21
41688;BME280;27371;42.686;23.362;2024-03-29T05:40:24;166576.75;;;16.77;41.04
41688;BME280;27371;42.686;23.362;2024-03-29T05:42:53;166553.91;;;16.68;41.31
41688;BME280;27371;42.686;23.362;2024-03-29T05:45:29;166600.88;;;16.86;40.71
41688;BME280;27371;42.686;23.362;2024-03-29T05:47:56;166560.63;;;16.71;40.97
41688;BME280;27371;42.686;23.362;2024-03-29T05:50:22;166504.28;;;16.50;41.42
41688;BME280;27371;42.686;23.362;2024-03-29T05:52:49;166472.06;;;16.37;41.62
41688;BME280;27371;42.686;23.362;2024-03-29T05:55:15;166533.78;;;16.61;41.19
41688;BME280;27371;42.686;23.362;2024-03-29T05:57:40;166552.56;;;16.68;41.00
41688;BME280;27371;42.686;23.362;2024-03-29T06:00:28;166533.78;;;16.61;41.10
41688;BME280;27371;42.686;23.362;2024-03-29T06:02:54;166508.28;;;16.51;42.16
41688;BME280;27371;42.686;23.362;2024-03-29T06:05:20;166389.00;;;16.06;42.40
41688;BME280;27371;42.686;23.362;2024-03-29T06:07:45;166473.47;;;16.38;42.08
41688;BME280;27371;42.686;23.362;2024-03-29T06:10:11;166359.50;;;15.94;42.96
41688;BME280;27371;42.686;23.362;2024-03-29T06:12:37;166466.75;;;16.35;43.15
41688;BME280;27371;42.686;23.362;2024-03-29T06:15:06;166293.81;;;15.69;43.04
41688;BME280;27371;42.686;23.362;2024-03-29T06:17:50;166536.44;;;16.62;42.78
41688;BME280;27371;42.686;23.362;2024-03-29T06:20:16;166540.50;;;16.63;41.74
41688;BME280;27371;42.686;23.362;2024-03-29T06:22:41;166541.81;;;16.64;41.38
41688;BME280;27371;42.686;23.362;2024-03-29T06:25:07;166592.84;;;16.83;40.74
41688;BME280;27371;42.686;23.362;2024-03-29T06:27:35;166661.25;;;17.09;40.67
41688;BME280;27371;42.686;23.362;2024-03-29T06:30:02;166722.94;;;17.33;40.26
41688;BME280;27371;42.686;23.362;2024-03-29T06:32:29;166643.78;;;17.03;39.92
41688;BME280;27371;42.686;23.362;2024-03-29T06:34:54;166645.13;;;17.03;40.29
41688;BME280;27371;42.686;23.362;2024-03-29T06:37:20;166651.84;;;17.06;40.09
41688;BME280;27371;42.686;23.362;2024-03-29T06:39:53;166634.41;;;16.99;40.33
41688;BME280;27371;42.686;23.362;2024-03-29T06:42:19;166626.38;;;16.96;40.29
41688;BME280;27371;42.686;23.362;2024-03-29T06:44:44;166651.84;;;17.06;40.42
41688;BME280;27371;42.686;23.362;2024-03-29T06:47:11;166756.50;;;17.46;39.50
41688;BME280;27371;42.686;23.362;2024-03-29T06:49:37;166786.00;;;17.57;39.40
41688;BME280;27371;42.686;23.362;2024-03-29T06:52:02;166763.19;;;17.48;39.68
41688;BME280;27371;42.686;23.362;2024-03-29T06:54:28;166881.31;;;17.93;38.66
41688;BME280;27371;42.686;23.362;2024-03-29T06:56:55;166960.50;;;18.23;38.46
41688;BME280;27371;42.686;23.362;2024-03-29T06:59:21;166979.28;;;18.31;38.22
41688;BME280;27371;42.686;23.362;2024-03-29T07:01:47;166994.06;;;18.36;38.25
41688;BME280;27371;42.686;23.362;2024-03-29T07:04:19;166957.81;;;18.22;38.01
41688;BME280;27371;42.686;23.362;2024-03-29T07:06:45;166930.97;;;18.12;37.77
41688;BME280;27371;42.686;23.362;2024-03-29T07:09:14;166959.16;;;18.23;38.19
41688;BME280;27371;42.686;23.362;2024-03-29T07:11:40;166930.97;;;18.12;37.72
41688;BME280;27371;42.686;23.362;2024-03-29T07:14:06;167016.88;;;18.45;37.42
41688;BME280;27371;42.686;23.362;2024-03-29T07:16:31;167075.94;;;18.67;37.66
41688;BME280;27371;42.686;23.362;2024-03-29T07:18:57;167126.97;;;18.87;36.96
41688;BME280;27371;42.686;23.362;2024-03-29T07:21:24;167163.22;;;19.01;36.38
41688;BME280;27371;42.686;23.362;2024-03-29T07:23:49;167188.78;;;19.10;36.17
41688;BME280;27371;42.686;23.362;2024-03-29T07:26:15;167241.13;;;19.30;36.36
41688;BME280;27371;42.686;23.362;2024-03-29T07:28:40;167247.84;;;19.33;36.18
41688;BME280;27371;42.686;23.362;2024-03-29T07:31:07;167231.69;;;19.27;35.74
41688;BME280;27371;42.686;23.362;2024-03-29T07:33:33;167254.56;;;19.35;35.53
41688;BME280;27371;42.686;23.362;2024-03-29T07:35:59;167273.31;;;19.43;35.23
41688;BME280;27371;42.686;23.362;2024-03-29T07:38:24;167281.38;;;19.46;35.04
41688;BME280;27371;42.686;23.362;2024-03-29T07:40:50;167317.63;;;19.59;35.76
41688;BME280;27371;42.686;23.362;2024-03-29T07:43:17;167337.84;;;19.67;34.91
41688;BME280;27371;42.686;23.362;2024-03-29T07:45:43;167336.50;;;19.67;34.65
41688;BME280;27371;42.686;23.362;2024-03-29T07:48:18;167259.91;;;19.38;34.57
41688;BME280;27371;42.686;23.362;2024-03-29T07:50:45;167392.94;;;19.88;34.25
41688;BME280;27371;42.686;23.362;2024-03-29T07:53:11;167405.00;;;19.93;34.12
41688;BME280;27371;42.686;23.362;2024-03-29T07:55:39;167433.19;;;20.03;33.67
41688;BME280;27371;42.686;23.362;2024-03-29T07:58:06;167469.47;;;20.17;33.91
41688;BME280;27371;42.686;23.362;2024-03-29T08:00:32;167500.41;;;20.29;33.35
41688;BME280;27371;42.686;23.362;2024-03-29T08:02:58;167490.97;;;20.25;33.06
41688;BME280;27371;42.686;23.362;2024-03-29T08:05:24;167531.31;;;20.41;32.86
41688;BME280;27371;42.686;23.362;2024-03-29T08:07:50;167528.59;;;20.40;33.19
41688;BME280;27371;42.686;23.362;2024-03-29T08:10:16;167605.25;;;20.69;32.57
41688;BME280;27371;42.686;23.362;2024-03-29T08:12:41;167637.47;;;20.81;33.11
41688;BME280;27371;42.686;23.362;2024-03-29T08:15:07;167617.34;;;20.74;33.00
41688;BME280;27371;42.686;23.362;2024-03-29T08:17:36;167638.84;;;20.82;32.85
41688;BME280;27371;42.686;23.362;2024-03-29T08:20:02;167606.56;;;20.69;33.09
41688;BME280;27371;42.686;23.362;2024-03-29T08:22:28;167638.84;;;20.82;33.13
41688;BME280;27371;42.686;23.362;2024-03-29T08:24:55;167547.41;;;20.47;32.97
41688;BME280;27371;42.686;23.362;2024-03-29T08:27:20;167560.84;;;20.52;33.61
41688;BME280;27371;42.686;23.362;2024-03-29T08:29:46;167629.41;;;20.78;33.09
41688;BME280;27371;42.686;23.362;2024-03-29T08:32:12;167673.81;;;20.95;32.85
41688;BME280;27371;42.686;23.362;2024-03-29T08:34:38;167732.94;;;21.18;32.89
41688;BME280;27371;42.686;23.362;2024-03-29T08:37:03;167781.28;;;21.36;32.65
41688;BME280;27371;42.686;23.362;2024-03-29T08:39:32;167804.19;;;21.45;31.52
41688;BME280;27371;42.686;23.362;2024-03-29T08:41:58;167742.31;;;21.21;32.01
41688;BME280;27371;42.686;23.362;2024-03-29T08:44:24;167823.03;;;21.52;31.75
41688;BME280;27371;42.686;23.362;2024-03-29T08:46:51;167809.56;;;21.47;31.44
41688;BME280;27371;42.686;23.362;2024-03-29T08:49:16;167855.31;;;21.64;31.41
41688;BME280;27371;42.686;23.362;2024-03-29T08:51:42;167848.59;;;21.62;31.32
41688;BME280;27371;42.686;23.362;2024-03-29T08:54:08;167901.00;;;21.82;31.05
41688;BME280;27371;42.686;23.362;2024-03-29T08:56:33;167946.72;;;21.99;30.90
41688;BME280;27371;42.686;23.362;2024-03-29T08:59:05;167946.72;;;21.99;31.15
41688;BME280;27371;42.686;23.362;2024-03-29T09:01:35;167937.31;;;21.95;30.23
41688;BME280;27371;42.686;23.362;2024-03-29T09:04:01;167948.03;;;21.99;30.56
41688;BME280;27371;42.686;23.362;2024-03-29T09:06:27;168005.91;;;22.21;30.53
41688;BME280;27371;42.686;23.362;2024-03-29T09:08:52;168009.97;;;22.23;30.20
41688;BME280;27371;42.686;23.362;2024-03-29T09:11:18;168004.59;;;22.21;30.19
41688;BME280;27371;42.686;23.362;2024-03-29T09:13:43;168022.09;;;22.28;30.09
41688;BME280;27371;42.686;23.362;2024-03-29T09:16:09;168027.44;;;22.30;30.17
41688;BME280;27371;42.686;23.362;2024-03-29T09:18:35;168065.09;;;22.44;30.45
41688;BME280;27371;42.686;23.362;2024-03-29T09:21:01;168077.19;;;22.49;30.05
41688;BME280;27371;42.686;23.362;2024-03-29T09:23:27;168118.91;;;22.64;28.75
41688;BME280;27371;42.686;23.362;2024-03-29T09:25:55;168131.03;;;22.69;29.31
41688;BME280;27371;42.686;23.362;2024-03-29T09:28:22;168143.09;;;22.74;26.95
41688;BME280;27371;42.686;23.362;2024-03-29T09:30:48;168122.91;;;22.66;27.63
41688;BME280;27371;42.686;23.362;2024-03-29T09:33:14;168151.16;;;22.77;27.60
41688;BME280;27371;42.686;23.362;2024-03-29T09:35:39;168128.31;;;22.68;27.14
41688;BME280;27371;42.686;23.362;2024-03-29T09:38:05;168122.91;;;22.66;27.30
41688;BME280;27371;42.686;23.362;2024-03-29T09:40:31;168137.75;;;22.72;27.37
41688;BME280;27371;42.686;23.362;2024-03-29T09:43:00;168129.66;;;22.68;28.01
41688;BME280;27371;42.686;23.362;2024-03-29T09:45:34;168121.59;;;22.65;27.43
41688;BME280;27371;42.686;23.362;2024-03-29T09:48:05;168136.38;;;22.71;27.65
41688;BME280;27371;42.686;23.362;2024-03-29T09:50:34;168108.13;;;22.60;27.61
41688;BME280;27371;42.686;23.362;2024-03-29T09:53:01;168071.81;;;22.46;27.86
41688;BME280;27371;42.686;23.362;2024-03-29T09:55:28;168096.06;;;22.56;27.78
41688;BME280;27371;42.686;23.362;2024-03-29T09:57:54;168078.53;;;22.49;28.56
41688;BME280;27371;42.686;23.362;2024-03-29T10:00:20;168048.97;;;22.38;28.34
41688;BME280;27371;42.686;23.362;2024-03-29T10:02:49;168011.31;;;22.23;28.58
41688;BME280;27371;42.686;23.362;2024-03-29T10:05:15;167942.69;;;21.97;27.89
41688;BME280;27371;42.686;23.362;2024-03-29T10:07:43;167918.47;;;21.88;27.79
41688;BME280;27371;42.686;23.362;2024-03-29T10:10:10;167862.00;;;21.67;28.00
41688;BME280;27371;42.686;23.362;2024-03-29T10:12:36;167775.94;;;21.34;28.99
41688;BME280;27371;42.686;23.362;2024-03-29T10:15:03;167743.66;;;21.22;29.64
41688;BME280;27371;42.686;23.362;2024-03-29T10:17:44;167763.84;;;21.29;29.39
41688;BME280;27371;42.686;23.362;2024-03-29T10:20:10;167700.66;;;21.05;29.35
41688;BME280;27371;42.686;23.362;2024-03-29T10:22:40;167614.63;;;20.73;29.62
41688;BME280;27371;42.686;23.362;2024-03-29T10:25:06;167492.31;;;20.26;30.19
41688;BME280;27371;42.686;23.362;2024-03-29T10:27:32;167407.72;;;19.94;31.49
41688;BME280;27371;42.686;23.362;2024-03-29T10:29:59;167336.50;;;19.67;32.34
41688;BME280;27371;42.686;23.362;2024-03-29T10:32:24;167349.94;;;19.72;32.37
41688;BME280;27371;42.686;23.362;2024-03-29T10:34:50;167430.53;;;20.02;32.26
41688;BME280;27371;42.686;23.362;2024-03-29T10:37:16;167482.91;;;20.22;31.89
41688;BME280;27371;42.686;23.362;2024-03-29T10:39:50;167410.38;;;19.95;32.08
41688;BME280;27371;42.686;23.362;2024-03-29T10:42:16;167466.81;;;20.16;32.08
41688;BME280;27371;42.686;23.362;2024-03-29T10:44:44;167486.97;;;20.24;32.42
41688;BME280;27371;42.686;23.362;2024-03-29T10:47:13;167484.25;;;20.23;31.93
41688;BME280;27371;42.686;23.362;2024-03-29T10:49:43;167474.88;;;20.19;31.84
41688;BME280;27371;42.686;23.362;2024-03-29T10:52:10;167414.44;;;19.96;32.54
41688;BME280;27371;42.686;23.362;2024-03-29T10:54:40;167478.91;;;20.21;32.29
41688;BME280;27371;42.686;23.362;2024-03-29T10:57:09;167500.41;;;20.29;32.83
41688;BME280;27371;42.686;23.362;2024-03-29T11:05:01;167634.81;;;20.80;31.84
41688;BME280;27371;42.686;23.362;2024-03-29T11:07:34;167672.41;;;20.95;32.62
41688;BME280;27371;42.686;23.362;2024-03-29T11:10:04;167680.47;;;20.98;31.43
41688;BME280;27371;42.686;23.362;2024-03-29T11:12:35;167683.19;;;20.99;31.48
41688;BME280;27371;42.686;23.362;2024-03-29T11:15:05;167695.25;;;21.03;31.52
41688;BME280;27371;42.686;23.362;2024-03-29T11:17:36;167712.75;;;21.10;31.16
41688;BME280;27371;42.686;23.362;2024-03-29T11:20:03;167701.97;;;21.06;31.64
41688;BME280;27371;42.686;23.362;2024-03-29T11:22:30;167720.81;;;21.13;32.17
41688;BME280;27371;42.686;23.362;2024-03-29T11:24:55;167751.72;;;21.25;31.54
41688;BME280;27371;42.686;23.362;2024-03-29T11:27:24;167730.22;;;21.17;31.81
41688;BME280;27371;42.686;23.362;2024-03-29T11:29:52;167754.44;;;21.26;31.44
41688;BME280;27371;42.686;23.362;2024-03-29T11:32:37;167679.16;;;20.97;31.86
41688;BME280;27371;42.686;23.362;2024-03-29T11:35:04;167689.94;;;21.01;32.05
41688;BME280;27371;42.686;23.362;2024-03-29T11:37:31;167683.19;;;20.99;32.31
41688;BME280;27371;42.686;23.362;2024-03-29T11:40:00;167728.88;;;21.16;32.28
41688;BME280;27371;42.686;23.362;2024-03-29T11:42:47;167767.84;;;21.31;31.88
41688;BME280;27371;42.686;23.362;2024-03-29T11:45:12;167767.84;;;21.31;31.74
41688;BME280;27371;42.686;23.362;2024-03-29T11:47:40;167769.22;;;21.31;31.85
41688;BME280;27371;42.686;23.362;2024-03-29T11:50:07;167785.41;;;21.38;32.03
41688;BME280;27371;42.686;23.362;2024-03-29T11:52:33;167755.78;;;21.26;32.07
41688;BME280;27371;42.686;23.362;2024-03-29T11:55:00;167769.22;;;21.31;32.25
41688;BME280;27371;42.686;23.362;2024-03-29T11:57:25;167734.28;;;21.18;32.37
41688;BME280;27371;42.686;23.362;2024-03-29T11:59:51;167747.72;;;21.23;32.58
41688;BME280;27371;42.686;23.362;2024-03-29T12:02:17;167739.66;;;21.20;32.65
41688;BME280;27371;42.686;23.362;2024-03-29T12:04:42;167747.72;;;21.23;32.45
41688;BME280;27371;42.686;23.362;2024-03-29T12:07:08;167642.84;;;20.83;33.15
41688;BME280;27371;42.686;23.362;2024-03-29T12:09:34;167527.25;;;20.39;34.12
41688;BME280;27371;42.686;23.362;2024-03-29T12:12:00;167464.13;;;20.15;34.32
41688;BME280;27371;42.686;23.362;2024-03-29T12:14:31;167481.59;;;20.22;34.72
41688;BME280;27371;42.686;23.362;2024-03-29T12:17:01;167555.47;;;20.50;34.30
41688;BME280;27371;42.686;23.362;2024-03-29T12:19:27;167607.91;;;20.70;33.78
41688;BME280;27371;42.686;23.362;2024-03-29T12:21:54;167695.25;;;21.03;33.49
41688;BME280;27371;42.686;23.362;2024-03-29T12:24:20;167742.31;;;21.21;33.29
41688;BME280;27371;42.686;23.362;2024-03-29T12:26:48;167797.50;;;21.42;32.95
41688;BME280;27371;42.686;23.362;2024-03-29T12:29:15;167814.97;;;21.49;33.09
41688;BME280;27371;42.686;23.362;2024-03-29T12:31:41;167878.16;;;21.73;32.78
41688;BME280;27371;42.686;23.362;2024-03-29T12:34:06;167927.91;;;21.92;32.30
41688;BME280;27371;42.686;23.362;2024-03-29T12:36:33;167952.09;;;22.01;31.92
41688;BME280;27371;42.686;23.362;2024-03-29T12:38:59;167966.88;;;22.07;31.45
41688;BME280;27371;42.686;23.362;2024-03-29T12:41:31;168022.09;;;22.28;31.55
41688;BME280;27371;42.686;23.362;2024-03-29T12:43:58;168031.50;;;22.31;31.16